sensor_id;sensor_type;location;lat;lon;timestamp;pressure;altitude;pressure_sealevel;temperature;humidity
15489;BME280;7846;48.830;9.116;2022-07-23T00:00:21;97811.13;;;29.08;43.37
15489;BME280;7846;48.830;9.116;2022-07-23T00:03:06;97776.50;;;28.79;42.87
15489;BME280;7846;48.830;9.116;2022-07-23T00:05:55;97801.56;;;29.21;42.91
15489;BME280;7846;48.830;9.116;2022-07-23T00:08:39;97800.50;;;29.16;42.67
15489;BME280;7846;48.830;9.116;2022-07-23T00:11:22;97791.66;;;28.85;43.35
15489;BME280;7846;48.830;9.116;2022-07-23T00:14:06;97777.88;;;28.82;43.29
15489;BME280;7846;48.830;9.116;2022-07-23T00:16:50;97787.59;;;28.93;43.40
15489;BME280;7846;48.830;9.116;2022-07-23T00:19:34;97786.53;;;28.79;43.48
15489;BME280;7846;48.830;9.116;2022-07-23T00:22:20;97774.59;;;28.80;43.77
15489;BME280;7846;48.830;9.116;2022-07-23T00:25:04;97788.97;;;28.80;43.81
15489;BME280;7846;48.830;9.116;2022-07-23T00:27:48;97788.16;;;28.80;44.01
15489;BME280;7846;48.830;9.116;2022-07-23T00:30:32;97781.16;;;28.68;44.13
15489;BME280;7846;48.830;9.116;2022-07-23T00:33:17;97764.91;;;28.63;44.67
15489;BME280;7846;48.830;9.116;2022-07-23T00:36:02;97775.19;;;28.61;44.35
15489;BME280;7846;48.830;9.116;2022-07-23T00:38:46;97770.59;;;28.62;44.55
15489;BME280;7846;48.830;9.116;2022-07-23T00:41:33;97776.06;;;28.46;45.15
15489;BME280;7846;48.830;9.116;2022-07-23T00:44:20;97766.56;;;28.34;45.58
15489;BME280;7846;48.830;9.116;2022-07-23T00:47:04;97766.59;;;28.39;45.26
15489;BME280;7846;48.830;9.116;2022-07-23T00:49:50;97754.16;;;28.12;45.80
15489;BME280;7846;48.830;9.116;2022-07-23T00:52:34;97743.28;;;28.53;45.41
15489;BME280;7846;48.830;9.116;2022-07-23T00:55:19;97761.47;;;28.37;45.32
15489;BME280;7846;48.830;9.116;2022-07-23T00:58:03;97756.31;;;28.10;45.92
15489;BME280;7846;48.830;9.116;2022-07-23T01:00:49;97741.44;;;27.97;45.97
15489;BME280;7846;48.830;9.116;2022-07-23T01:03:33;97742.25;;;28.08;45.88
15489;BME280;7846;48.830;9.116;2022-07-23T01:06:20;97749.81;;;28.27;45.63
15489;BME280;7846;48.830;9.116;2022-07-23T01:09:05;97755.50;;;27.99;45.90
15489;BME280;7846;48.830;9.116;2022-07-23T01:11:50;97759.03;;;27.80;46.42
15489;BME280;7846;48.830;9.116;2022-07-23T01:14:35;97753.06;;;28.03;45.93
15489;BME280;7846;48.830;9.116;2022-07-23T01:17:23;97750.09;;;27.89;46.28
15489;BME280;7846;48.830;9.116;2022-07-23T01:20:08;97731.69;;;28.37;45.40
15489;BME280;7846;48.830;9.116;2022-07-23T01:22:53;97723.50;;;28.53;44.93
15489;BME280;7846;48.830;9.116;2022-07-23T01:25:47;97729.53;;;27.93;46.25
15489;BME280;7846;48.830;9.116;2022-07-23T01:28:31;97726.84;;;27.83;46.56
15489;BME280;7846;48.830;9.116;2022-07-23T01:31:15;97720.63;;;27.83;46.85
15489;BME280;7846;48.830;9.116;2022-07-23T01:34:02;97718.44;;;27.95;46.33
15489;BME280;7846;48.830;9.116;2022-07-23T01:36:46;97718.97;;;27.66;47.00
15489;BME280;7846;48.830;9.116;2022-07-23T01:39:30;97716.28;;;28.07;46.14
15489;BME280;7846;48.830;9.116;2022-07-23T01:42:14;97711.38;;;28.19;46.05
15489;BME280;7846;48.830;9.116;2022-07-23T01:44:59;97716.28;;;28.07;46.50
15489;BME280;7846;48.830;9.116;2022-07-23T01:47:44;97718.41;;;28.15;46.20
15489;BME280;7846;48.830;9.116;2022-07-23T01:50:31;97722.75;;;27.81;46.96
15489;BME280;7846;48.830;9.116;2022-07-23T01:53:15;97724.38;;;27.66;47.30
15489;BME280;7846;48.830;9.116;2022-07-23T01:55:59;97736.28;;;27.55;47.95
15489;BME280;7846;48.830;9.116;2022-07-23T01:58:44;97728.16;;;27.55;47.94
15489;BME280;7846;48.830;9.116;2022-07-23T02:01:43;97720.72;;;27.10;49.12
15489;BME280;7846;48.830;9.116;2022-07-23T02:04:27;97705.81;;;26.82;49.69
15489;BME280;7846;48.830;9.116;2022-07-23T02:07:12;97724.03;;;27.12;49.27
15489;BME280;7846;48.830;9.116;2022-07-23T02:09:56;97751.94;;;26.70;50.26
15489;BME280;7846;48.830;9.116;2022-07-23T02:12:41;97773.00;;;26.68;50.36
15489;BME280;7846;48.830;9.116;2022-07-23T02:15:25;97760.41;;;26.99;49.61
15489;BME280;7846;48.830;9.116;2022-07-23T02:18:09;97758.75;;;26.88;49.67
15489;BME280;7846;48.830;9.116;2022-07-23T02:20:53;97770.41;;;26.98;49.55
15489;BME280;7846;48.830;9.116;2022-07-23T02:23:37;97774.28;;;27.13;49.31
15489;BME280;7846;48.830;9.116;2022-07-23T02:26:21;97763.75;;;27.16;49.19
15489;BME280;7846;48.830;9.116;2022-07-23T02:29:05;97767.03;;;27.18;49.31
15489;BME280;7846;48.830;9.116;2022-07-23T02:31:49;97777.34;;;27.37;48.85
15489;BME280;7846;48.830;9.116;2022-07-23T02:34:33;97779.59;;;26.92;49.91
15489;BME280;7846;48.830;9.116;2022-07-23T02:37:18;97799.28;;;26.83;50.12
15489;BME280;7846;48.830;9.116;2022-07-23T02:40:07;97811.09;;;27.19;48.95
15489;BME280;7846;48.830;9.116;2022-07-23T02:42:52;97817.50;;;26.60;50.41
15489;BME280;7846;48.830;9.116;2022-07-23T02:45:36;97818.81;;;27.05;49.41
15489;BME280;7846;48.830;9.116;2022-07-23T02:48:20;97822.31;;;27.00;49.52
15489;BME280;7846;48.830;9.116;2022-07-23T02:51:04;97828.63;;;27.11;48.92
15489;BME280;7846;48.830;9.116;2022-07-23T02:53:48;97828.41;;;27.28;48.55
15489;BME280;7846;48.830;9.116;2022-07-23T02:56:32;97827.59;;;27.33;48.56
15489;BME280;7846;48.830;9.116;2022-07-23T02:59:16;97838.88;;;27.14;49.02
15489;BME280;7846;48.830;9.116;2022-07-23T03:02:00;97837.59;;;27.27;48.70
15489;BME280;7846;48.830;9.116;2022-07-23T03:04:44;97846.31;;;27.49;48.50
15489;BME280;7846;48.830;9.116;2022-07-23T03:07:29;97849.75;;;27.24;49.13
15489;BME280;7846;48.830;9.116;2022-07-23T03:10:34;97850.72;;;27.08;49.61
15489;BME280;7846;48.830;9.116;2022-07-23T03:13:18;97851.19;;;26.95;49.76
15489;BME280;7846;48.830;9.116;2022-07-23T03:16:04;97847.09;;;26.87;50.54
15489;BME280;7846;48.830;9.116;2022-07-23T03:18:48;97847.03;;;26.77;50.77
15489;BME280;7846;48.830;9.116;2022-07-23T03:21:32;97846.69;;;27.11;50.07
15489;BME280;7846;48.830;9.116;2022-07-23T03:24:17;97845.47;;;27.34;49.44
15489;BME280;7846;48.830;9.116;2022-07-23T03:27:01;97834.59;;;27.23;49.53
15489;BME280;7846;48.830;9.116;2022-07-23T03:29:47;97828.16;;;27.35;49.28
15489;BME280;7846;48.830;9.116;2022-07-23T03:32:32;97834.97;;;27.53;49.01
15489;BME280;7846;48.830;9.116;2022-07-23T03:35:19;97835.22;;;27.46;49.29
15489;BME280;7846;48.830;9.116;2022-07-23T03:38:03;97831.91;;;27.23;49.34
15489;BME280;7846;48.830;9.116;2022-07-23T03:40:48;97837.53;;;27.17;49.62
15489;BME280;7846;48.830;9.116;2022-07-23T03:43:33;97835.97;;;27.31;49.34
15489;BME280;7846;48.830;9.116;2022-07-23T03:46:21;97839.56;;;27.52;48.87
15489;BME280;7846;48.830;9.116;2022-07-23T03:49:08;97840.06;;;27.44;48.71
15489;BME280;7846;48.830;9.116;2022-07-23T03:52:14;97834.69;;;27.49;49.04
15489;BME280;7846;48.830;9.116;2022-07-23T03:54:58;97831.44;;;27.42;48.92
15489;BME280;7846;48.830;9.116;2022-07-23T03:57:42;97835.19;;;27.36;49.28
15489;BME280;7846;48.830;9.116;2022-07-23T04:00:26;97836.53;;;27.33;49.10
15489;BME280;7846;48.830;9.116;2022-07-23T04:03:13;97829.44;;;27.12;49.97
15489;BME280;7846;48.830;9.116;2022-07-23T04:05:58;97839.16;;;27.18;49.57
15489;BME280;7846;48.830;9.116;2022-07-23T04:08:42;97835.84;;;27.06;49.55
15489;BME280;7846;48.830;9.116;2022-07-23T04:11:27;97839.13;;;27.08;49.47
15489;BME280;7846;48.830;9.116;2022-07-23T04:14:12;97844.19;;;26.99;49.79
15489;BME280;7846;48.830;9.116;2022-07-23T04:16:56;97849.03;;;27.55;48.57
15489;BME280;7846;48.830;9.116;2022-07-23T04:19:40;97851.75;;;27.70;48.80
15489;BME280;7846;48.830;9.116;2022-07-23T04:22:27;97856.94;;;27.66;49.27
15489;BME280;7846;48.830;9.116;2022-07-23T04:25:11;97854.47;;;27.70;49.29
15489;BME280;7846;48.830;9.116;2022-07-23T04:27:57;97858.81;;;27.71;49.46
15489;BME280;7846;48.830;9.116;2022-07-23T04:30:41;97846.63;;;27.73;49.57
15489;BME280;7846;48.830;9.116;2022-07-23T04:33:26;97851.03;;;27.74;49.74
15489;BME280;7846;48.830;9.116;2022-07-23T04:36:11;97850.44;;;27.72;49.89
15489;BME280;7846;48.830;9.116;2022-07-23T04:38:56;97856.13;;;27.71;49.80
15489;BME280;7846;48.830;9.116;2022-07-23T04:41:40;97857.75;;;27.77;49.80
15489;BME280;7846;48.830;9.116;2022-07-23T04:44:24;97850.50;;;27.78;49.70
15489;BME280;7846;48.830;9.116;2022-07-23T04:47:08;97856.97;;;27.82;49.41
15489;BME280;7846;48.830;9.116;2022-07-23T04:49:54;97861.59;;;27.81;48.96
15489;BME280;7846;48.830;9.116;2022-07-23T04:52:38;97863.19;;;27.77;49.10
15489;BME280;7846;48.830;9.116;2022-07-23T04:55:25;97862.38;;;27.92;48.29
15489;BME280;7846;48.830;9.116;2022-07-23T04:58:09;97857.00;;;27.97;47.64
15489;BME280;7846;48.830;9.116;2022-07-23T05:00:53;97868.25;;;27.58;47.92
15489;BME280;7846;48.830;9.116;2022-07-23T05:03:37;97861.31;;;28.03;47.63
15489;BME280;7846;48.830;9.116;2022-07-23T05:06:21;97866.22;;;28.21;46.82
15489;BME280;7846;48.830;9.116;2022-07-23T05:09:08;97860.56;;;28.43;46.74
15489;BME280;7846;48.830;9.116;2022-07-23T05:11:52;97862.44;;;28.53;46.32
15489;BME280;7846;48.830;9.116;2022-07-23T05:14:36;97881.69;;;28.46;46.63
15489;BME280;7846;48.830;9.116;2022-07-23T05:17:22;97881.63;;;28.36;47.51
15489;BME280;7846;48.830;9.116;2022-07-23T05:20:06;97874.13;;;27.40;50.12
15489;BME280;7846;48.830;9.116;2022-07-23T05:22:50;97872.13;;;27.88;49.36
15489;BME280;7846;48.830;9.116;2022-07-23T05:25:36;97877.84;;;28.12;48.60
15489;BME280;7846;48.830;9.116;2022-07-23T05:28:20;97886.88;;;27.49;50.13
15489;BME280;7846;48.830;9.116;2022-07-23T05:31:05;97892.34;;;27.65;50.23
15489;BME280;7846;48.830;9.116;2022-07-23T05:33:51;97901.81;;;27.72;50.45
15489;BME280;7846;48.830;9.116;2022-07-23T05:36:36;97895.47;;;28.19;48.95
15489;BME280;7846;48.830;9.116;2022-07-23T05:39:20;97896.31;;;28.56;48.40
15489;BME280;7846;48.830;9.116;2022-07-23T05:42:05;97900.91;;;28.65;47.67
15489;BME280;7846;48.830;9.116;2022-07-23T05:44:49;97900.09;;;28.50;47.51
15489;BME280;7846;48.830;9.116;2022-07-23T05:47:47;97918.78;;;28.72;47.26
15489;BME280;7846;48.830;9.116;2022-07-23T05:50:34;97917.69;;;28.37;48.15
15489;BME280;7846;48.830;9.116;2022-07-23T05:53:18;97920.69;;;28.45;47.99
15489;BME280;7846;48.830;9.116;2022-07-23T05:56:02;97929.63;;;28.46;48.12
15489;BME280;7846;48.830;9.116;2022-07-23T05:58:52;97938.16;;;27.92;49.20
15489;BME280;7846;48.830;9.116;2022-07-23T06:01:37;97953.66;;;27.01;51.54
15489;BME280;7846;48.830;9.116;2022-07-23T06:04:22;97941.22;;;26.36;53.80
15489;BME280;7846;48.830;9.116;2022-07-23T06:07:08;97938.69;;;26.51;53.80
15489;BME280;7846;48.830;9.116;2022-07-23T06:09:52;97937.63;;;26.52;53.74
15489;BME280;7846;48.830;9.116;2022-07-23T06:12:39;97929.94;;;26.71;53.05
15489;BME280;7846;48.830;9.116;2022-07-23T06:15:29;97907.53;;;26.12;53.50
15489;BME280;7846;48.830;9.116;2022-07-23T06:18:14;97907.72;;;26.32;52.81
15489;BME280;7846;48.830;9.116;2022-07-23T06:20:58;97908.09;;;27.15;50.87
15489;BME280;7846;48.830;9.116;2022-07-23T06:23:42;97907.47;;;27.61;49.88
15489;BME280;7846;48.830;9.116;2022-07-23T06:26:26;97912.75;;;28.03;47.48
15489;BME280;7846;48.830;9.116;2022-07-23T06:29:13;97936.38;;;27.50;48.68
15489;BME280;7846;48.830;9.116;2022-07-23T06:31:57;97922.78;;;28.13;47.08
15489;BME280;7846;48.830;9.116;2022-07-23T06:34:42;97928.56;;;27.59;47.47
15489;BME280;7846;48.830;9.116;2022-07-23T06:37:26;97930.78;;;27.67;48.68
15489;BME280;7846;48.830;9.116;2022-07-23T06:40:12;97940.34;;;26.90;49.84
15489;BME280;7846;48.830;9.116;2022-07-23T06:43:00;97937.44;;;27.07;49.34
15489;BME280;7846;48.830;9.116;2022-07-23T06:45:46;97944.09;;;27.26;49.43
15489;BME280;7846;48.830;9.116;2022-07-23T06:48:30;97957.03;;;26.49;50.99
15489;BME280;7846;48.830;9.116;2022-07-23T06:51:21;97966.59;;;26.99;50.64
15489;BME280;7846;48.830;9.116;2022-07-23T06:54:08;97978.31;;;26.46;51.60
15489;BME280;7846;48.830;9.116;2022-07-23T06:56:52;97978.81;;;26.16;52.25
15489;BME280;7846;48.830;9.116;2022-07-23T06:59:39;97990.38;;;26.11;52.70
15489;BME280;7846;48.830;9.116;2022-07-23T07:02:24;97995.13;;;25.60;54.66
15489;BME280;7846;48.830;9.116;2022-07-23T07:05:09;97987.56;;;25.18;55.71
15489;BME280;7846;48.830;9.116;2022-07-23T07:07:55;97975.53;;;25.26;56.13
15489;BME280;7846;48.830;9.116;2022-07-23T07:10:43;97985.56;;;25.30;55.99
15489;BME280;7846;48.830;9.116;2022-07-23T07:13:30;97977.16;;;25.10;57.59
15489;BME280;7846;48.830;9.116;2022-07-23T07:16:23;97971.38;;;25.18;57.75
15489;BME280;7846;48.830;9.116;2022-07-23T07:19:07;97953.25;;;25.52;56.67
15489;BME280;7846;48.830;9.116;2022-07-23T07:21:52;97935.75;;;25.33;58.82
15489;BME280;7846;48.830;9.116;2022-07-23T07:24:37;97951.06;;;25.10;60.41
15489;BME280;7846;48.830;9.116;2022-07-23T07:27:22;97973.13;;;24.00;67.00
15489;BME280;7846;48.830;9.116;2022-07-23T07:30:08;97976.78;;;23.82;67.10
15489;BME280;7846;48.830;9.116;2022-07-23T07:32:51;97981.75;;;23.73;67.24
15489;BME280;7846;48.830;9.116;2022-07-23T07:35:35;97977.72;;;24.16;67.31
15489;BME280;7846;48.830;9.116;2022-07-23T07:38:24;97979.97;;;24.07;65.92
15489;BME280;7846;48.830;9.116;2022-07-23T07:41:08;97973.81;;;24.86;64.48
15489;BME280;7846;48.830;9.116;2022-07-23T07:43:54;97999.38;;;25.00;63.50
15489;BME280;7846;48.830;9.116;2022-07-23T07:46:38;98006.72;;;25.22;62.79
15489;BME280;7846;48.830;9.116;2022-07-23T07:49:22;98017.50;;;25.22;62.75
15489;BME280;7846;48.830;9.116;2022-07-23T07:52:07;98026.38;;;25.05;61.56
15489;BME280;7846;48.830;9.116;2022-07-23T07:54:51;98032.34;;;25.24;61.32
15489;BME280;7846;48.830;9.116;2022-07-23T07:57:37;98042.72;;;25.32;61.81
15489;BME280;7846;48.830;9.116;2022-07-23T08:00:21;98045.38;;;25.49;61.11
15489;BME280;7846;48.830;9.116;2022-07-23T08:03:06;98035.38;;;26.33;59.50
15489;BME280;7846;48.830;9.116;2022-07-23T08:05:51;98027.94;;;26.67;57.65
15489;BME280;7846;48.830;9.116;2022-07-23T08:08:36;98031.69;;;26.93;56.33
15489;BME280;7846;48.830;9.116;2022-07-23T08:11:21;98034.75;;;27.39;55.72
15489;BME280;7846;48.830;9.116;2022-07-23T08:14:08;98033.78;;;26.59;56.35
15489;BME280;7846;48.830;9.116;2022-07-23T08:16:53;98032.19;;;27.64;55.12
15489;BME280;7846;48.830;9.116;2022-07-23T08:19:38;98045.25;;;27.03;54.31
15489;BME280;7846;48.830;9.116;2022-07-23T08:22:41;98024.91;;;27.70;53.30
15489;BME280;7846;48.830;9.116;2022-07-23T08:25:41;98022.84;;;28.96;51.85
15489;BME280;7846;48.830;9.116;2022-07-23T08:28:25;98038.31;;;29.01;49.60
15489;BME280;7846;48.830;9.116;2022-07-23T08:31:10;98038.81;;;28.77;49.50
15489;BME280;7846;48.830;9.116;2022-07-23T08:33:59;98037.97;;;29.53;49.31
15489;BME280;7846;48.830;9.116;2022-07-23T08:36:43;98028.72;;;29.70;47.70
15489;BME280;7846;48.830;9.116;2022-07-23T08:39:27;98033.00;;;30.51;46.98
15489;BME280;7846;48.830;9.116;2022-07-23T08:42:16;98031.63;;;31.27;45.41
15489;BME280;7846;48.830;9.116;2022-07-23T08:45:02;98029.19;;;32.02;44.08
15489;BME280;7846;48.830;9.116;2022-07-23T08:47:52;98033.41;;;32.14;41.20
15489;BME280;7846;48.830;9.116;2022-07-23T08:50:45;98045.50;;;31.54;42.96
15489;BME280;7846;48.830;9.116;2022-07-23T08:53:31;98036.44;;;31.64;40.94
15489;BME280;7846;48.830;9.116;2022-07-23T08:56:17;98034.22;;;31.42;41.77
15489;BME280;7846;48.830;9.116;2022-07-23T08:59:02;98030.94;;;31.11;43.29
15489;BME280;7846;48.830;9.116;2022-07-23T09:01:50;98033.94;;;31.68;43.04
15489;BME280;7846;48.830;9.116;2022-07-23T09:04:34;98028.72;;;32.38;40.98
15489;BME280;7846;48.830;9.116;2022-07-23T09:07:20;98027.84;;;31.76;41.35
15489;BME280;7846;48.830;9.116;2022-07-23T09:10:11;98029.75;;;31.51;42.52
15489;BME280;7846;48.830;9.116;2022-07-23T09:12:55;98034.16;;;30.84;43.33
15489;BME280;7846;48.830;9.116;2022-07-23T09:15:52;98028.88;;;31.32;42.46
15489;BME280;7846;48.830;9.116;2022-07-23T09:18:39;98024.56;;;33.16;39.91
15489;BME280;7846;48.830;9.116;2022-07-23T09:21:36;98022.75;;;33.86;38.81
15489;BME280;7846;48.830;9.116;2022-07-23T09:24:20;98015.00;;;33.00;39.14
15489;BME280;7846;48.830;9.116;2022-07-23T09:27:04;98018.56;;;33.88;37.96
15489;BME280;7846;48.830;9.116;2022-07-23T09:29:57;98020.00;;;33.58;36.15
15489;BME280;7846;48.830;9.116;2022-07-23T09:32:41;98023.34;;;32.90;36.92
15489;BME280;7846;48.830;9.116;2022-07-23T09:35:52;98024.41;;;31.94;38.39
15489;BME280;7846;48.830;9.116;2022-07-23T09:38:50;98010.47;;;31.48;38.99
15489;BME280;7846;48.830;9.116;2022-07-23T09:41:46;98004.31;;;31.90;38.70
15489;BME280;7846;48.830;9.116;2022-07-23T09:44:30;98010.50;;;32.15;38.08
15489;BME280;7846;48.830;9.116;2022-07-23T09:47:16;98006.53;;;31.83;37.79
15489;BME280;7846;48.830;9.116;2022-07-23T09:50:02;98012.84;;;30.96;38.66
15489;BME280;7846;48.830;9.116;2022-07-23T09:52:49;98007.41;;;31.30;39.12
15489;BME280;7846;48.830;9.116;2022-07-23T09:55:36;98004.28;;;31.42;39.31
15489;BME280;7846;48.830;9.116;2022-07-23T09:58:24;98006.25;;;32.09;39.29
15489;BME280;7846;48.830;9.116;2022-07-23T10:01:12;98004.84;;;31.10;41.15
15489;BME280;7846;48.830;9.116;2022-07-23T10:03:58;98009.97;;;30.82;40.55
15489;BME280;7846;48.830;9.116;2022-07-23T10:06:42;98010.44;;;31.24;40.11
15489;BME280;7846;48.830;9.116;2022-07-23T10:09:30;97999.63;;;30.45;41.11
15489;BME280;7846;48.830;9.116;2022-07-23T10:12:16;97999.47;;;32.63;38.25
15489;BME280;7846;48.830;9.116;2022-07-23T10:15:06;98016.28;;;31.41;38.72
15489;BME280;7846;48.830;9.116;2022-07-23T10:17:51;98008.56;;;31.96;37.90
15489;BME280;7846;48.830;9.116;2022-07-23T10:20:36;98008.94;;;30.78;40.01
15489;BME280;7846;48.830;9.116;2022-07-23T10:23:28;98009.81;;;30.14;41.37
15489;BME280;7846;48.830;9.116;2022-07-23T10:26:23;98005.13;;;32.10;39.56
15489;BME280;7846;48.830;9.116;2022-07-23T10:29:32;98015.78;;;31.05;41.85
15489;BME280;7846;48.830;9.116;2022-07-23T10:35:38;98009.97;;;31.46;39.35
15489;BME280;7846;48.830;9.116;2022-07-23T10:38:48;97998.88;;;31.90;39.07
15489;BME280;7846;48.830;9.116;2022-07-23T10:41:39;98010.63;;;31.32;39.67
15489;BME280;7846;48.830;9.116;2022-07-23T10:44:25;98007.28;;;33.21;37.61
15489;BME280;7846;48.830;9.116;2022-07-23T10:47:26;98003.16;;;32.15;38.86
15489;BME280;7846;48.830;9.116;2022-07-23T10:50:28;97999.06;;;31.70;39.21
15489;BME280;7846;48.830;9.116;2022-07-23T10:53:18;98000.81;;;32.27;38.85
15489;BME280;7846;48.830;9.116;2022-07-23T10:56:04;98005.47;;;30.62;41.25
15489;BME280;7846;48.830;9.116;2022-07-23T10:58:49;97998.41;;;31.30;40.76
15489;BME280;7846;48.830;9.116;2022-07-23T11:01:37;97993.19;;;32.48;39.53
15489;BME280;7846;48.830;9.116;2022-07-23T11:04:48;97989.38;;;32.25;39.58
15489;BME280;7846;48.830;9.116;2022-07-23T11:07:34;98004.75;;;31.73;39.86
15489;BME280;7846;48.830;9.116;2022-07-23T11:10:39;98000.00;;;32.65;38.38
15489;BME280;7846;48.830;9.116;2022-07-23T11:13:26;98001.63;;;31.61;40.12
15489;BME280;7846;48.830;9.116;2022-07-23T11:16:23;97991.09;;;32.92;37.92
15489;BME280;7846;48.830;9.116;2022-07-23T11:19:08;97988.56;;;33.00;37.88
15489;BME280;7846;48.830;9.116;2022-07-23T11:21:52;97996.25;;;32.04;39.62
15489;BME280;7846;48.830;9.116;2022-07-23T11:24:50;97992.91;;;31.59;39.58
15489;BME280;7846;48.830;9.116;2022-07-23T11:27:41;97982.22;;;31.68;39.68
15489;BME280;7846;48.830;9.116;2022-07-23T11:33:18;97987.53;;;32.02;40.17
15489;BME280;7846;48.830;9.116;2022-07-23T11:36:03;97995.00;;;32.34;38.82
15489;BME280;7846;48.830;9.116;2022-07-23T11:38:49;97994.94;;;31.96;39.75
15489;BME280;7846;48.830;9.116;2022-07-23T11:41:43;97986.84;;;31.14;40.90
15489;BME280;7846;48.830;9.116;2022-07-23T11:47:13;97994.03;;;32.63;38.70
15489;BME280;7846;48.830;9.116;2022-07-23T11:50:00;97983.50;;;32.75;38.89
15489;BME280;7846;48.830;9.116;2022-07-23T11:52:46;97980.59;;;32.52;38.97
15489;BME280;7846;48.830;9.116;2022-07-23T11:55:30;97984.59;;;31.98;39.89
15489;BME280;7846;48.830;9.116;2022-07-23T11:58:16;97988.69;;;33.23;38.16
15489;BME280;7846;48.830;9.116;2022-07-23T12:00:59;97985.63;;;32.59;37.94
15489;BME280;7846;48.830;9.116;2022-07-23T12:03:52;97985.34;;;32.61;37.97
15489;BME280;7846;48.830;9.116;2022-07-23T12:06:39;97976.16;;;32.38;38.07
15489;BME280;7846;48.830;9.116;2022-07-23T12:09:24;97985.31;;;33.59;36.35
15489;BME280;7846;48.830;9.116;2022-07-23T12:12:08;97978.75;;;32.81;36.98
15489;BME280;7846;48.830;9.116;2022-07-23T12:14:56;97977.78;;;33.37;36.67
15489;BME280;7846;48.830;9.116;2022-07-23T12:17:43;97977.72;;;33.69;36.29
15489;BME280;7846;48.830;9.116;2022-07-23T12:20:30;97986.81;;;33.51;36.96
15489;BME280;7846;48.830;9.116;2022-07-23T12:23:47;97977.47;;;34.07;36.63
15489;BME280;7846;48.830;9.116;2022-07-23T12:26:31;97969.81;;;34.09;36.17
15489;BME280;7846;48.830;9.116;2022-07-23T12:29:15;97981.16;;;32.49;38.86
15489;BME280;7846;48.830;9.116;2022-07-23T12:31:59;97975.41;;;33.49;37.94
15489;BME280;7846;48.830;9.116;2022-07-23T12:35:07;97974.06;;;33.00;38.35
15489;BME280;7846;48.830;9.116;2022-07-23T12:37:52;97980.50;;;33.37;37.45
15489;BME280;7846;48.830;9.116;2022-07-23T12:40:48;97973.66;;;33.81;36.98
15489;BME280;7846;48.830;9.116;2022-07-23T12:43:39;97977.00;;;33.50;37.29
15489;BME280;7846;48.830;9.116;2022-07-23T12:46:23;97976.94;;;33.09;37.85
15489;BME280;7846;48.830;9.116;2022-07-23T12:49:07;97966.25;;;33.26;37.18
15489;BME280;7846;48.830;9.116;2022-07-23T12:51:55;97984.81;;;33.10;37.39
15489;BME280;7846;48.830;9.116;2022-07-23T12:54:39;97978.91;;;31.95;38.26
15489;BME280;7846;48.830;9.116;2022-07-23T12:57:46;97976.44;;;32.17;37.75
15489;BME280;7846;48.830;9.116;2022-07-23T13:00:31;97977.84;;;32.52;37.54
15489;BME280;7846;48.830;9.116;2022-07-23T13:03:54;97973.38;;;32.43;37.37
15489;BME280;7846;48.830;9.116;2022-07-23T13:06:31;97974.00;;;32.16;37.09
15489;BME280;7846;48.830;9.116;2022-07-23T13:09:21;97986.28;;;32.32;37.10
15489;BME280;7846;48.830;9.116;2022-07-23T13:12:08;97982.84;;;34.12;35.19
15489;BME280;7846;48.830;9.116;2022-07-23T13:14:54;97984.75;;;32.64;36.79
15489;BME280;7846;48.830;9.116;2022-07-23T13:17:38;97986.28;;;34.18;35.28
15489;BME280;7846;48.830;9.116;2022-07-23T13:20:23;97986.44;;;34.35;35.22
15489;BME280;7846;48.830;9.116;2022-07-23T13:23:07;97993.00;;;34.93;34.41
15489;BME280;7846;48.830;9.116;2022-07-23T13:25:51;97982.75;;;34.04;35.22
15489;BME280;7846;48.830;9.116;2022-07-23T13:28:36;97981.78;;;36.05;33.53
15489;BME280;7846;48.830;9.116;2022-07-23T13:31:21;97992.91;;;36.26;32.08
15489;BME280;7846;48.830;9.116;2022-07-23T13:34:06;97992.94;;;37.51;30.58
15489;BME280;7846;48.830;9.116;2022-07-23T13:36:50;97999.88;;;38.46;29.43
15489;BME280;7846;48.830;9.116;2022-07-23T13:39:34;97988.22;;;37.14;31.86
15489;BME280;7846;48.830;9.116;2022-07-23T13:42:18;97987.03;;;35.93;32.81
15489;BME280;7846;48.830;9.116;2022-07-23T13:45:05;97985.06;;;37.80;30.49
15489;BME280;7846;48.830;9.116;2022-07-23T13:47:49;97978.41;;;36.69;31.23
15489;BME280;7846;48.830;9.116;2022-07-23T13:50:34;97975.00;;;38.76;28.76
15489;BME280;7846;48.830;9.116;2022-07-23T13:53:20;97965.25;;;37.95;29.23
15489;BME280;7846;48.830;9.116;2022-07-23T13:56:07;97960.34;;;38.00;29.43
15489;BME280;7846;48.830;9.116;2022-07-23T13:58:51;97961.44;;;36.06;32.13
15489;BME280;7846;48.830;9.116;2022-07-23T14:01:35;97961.63;;;37.44;30.61
15489;BME280;7846;48.830;9.116;2022-07-23T14:04:21;97955.53;;;38.81;28.50
15489;BME280;7846;48.830;9.116;2022-07-23T14:07:05;97960.28;;;38.30;28.87
15489;BME280;7846;48.830;9.116;2022-07-23T14:09:49;97949.78;;;37.52;29.57
15489;BME280;7846;48.830;9.116;2022-07-23T14:12:33;97948.13;;;37.21;29.75
15489;BME280;7846;48.830;9.116;2022-07-23T14:15:17;97955.03;;;39.12;28.00
15489;BME280;7846;48.830;9.116;2022-07-23T14:18:01;97948.50;;;38.71;27.43
15489;BME280;7846;48.830;9.116;2022-07-23T14:20:48;97947.78;;;36.58;29.88
15489;BME280;7846;48.830;9.116;2022-07-23T14:23:33;97944.75;;;34.97;32.62
15489;BME280;7846;48.830;9.116;2022-07-23T14:26:18;97945.97;;;36.02;31.41
15489;BME280;7846;48.830;9.116;2022-07-23T14:29:03;97938.34;;;37.03;30.26
15489;BME280;7846;48.830;9.116;2022-07-23T14:31:49;97943.88;;;36.68;29.67
15489;BME280;7846;48.830;9.116;2022-07-23T14:34:34;97940.69;;;37.60;29.06
15489;BME280;7846;48.830;9.116;2022-07-23T14:37:20;97948.56;;;36.59;30.21
15489;BME280;7846;48.830;9.116;2022-07-23T14:40:05;97938.06;;;36.00;31.23
15489;BME280;7846;48.830;9.116;2022-07-23T14:42:49;97940.03;;;37.93;29.84
15489;BME280;7846;48.830;9.116;2022-07-23T14:45:33;97942.75;;;36.52;29.87
15489;BME280;7846;48.830;9.116;2022-07-23T14:48:19;97949.31;;;37.03;29.13
15489;BME280;7846;48.830;9.116;2022-07-23T14:51:03;97935.09;;;37.10;29.04
15489;BME280;7846;48.830;9.116;2022-07-23T14:53:47;97944.50;;;37.47;28.77
15489;BME280;7846;48.830;9.116;2022-07-23T14:56:31;97943.25;;;36.71;29.59
15489;BME280;7846;48.830;9.116;2022-07-23T14:59:17;97935.06;;;37.86;28.31
15489;BME280;7846;48.830;9.116;2022-07-23T15:02:01;97937.50;;;37.11;28.77